createdAt,value
2019-01-17T00:01:08.817Z,2.27
2019-01-17T00:03:49.494Z,1.80
2019-01-17T00:06:37.434Z,2.07
2019-01-17T00:09:16.469Z,2.20
2019-01-17T00:12:10.687Z,2.17
2019-01-17T00:15:10.818Z,2.53
2019-01-17T00:18:17.287Z,2.30
2019-01-17T00:21:03.671Z,2.10
2019-01-17T00:24:02.703Z,2.70
2019-01-17T00:26:55.897Z,2.70
2019-01-17T00:29:55.671Z,2.33
2019-01-17T00:32:49.021Z,2.30
2019-01-17T00:35:29.735Z,2.30
2019-01-17T00:38:09.394Z,2.70
2019-01-17T00:41:12.677Z,2.30
2019-01-17T00:44:00.469Z,2.40
2019-01-17T00:46:47.046Z,2.00
2019-01-17T00:49:34.749Z,2.70
2019-01-17T00:52:21.150Z,1.80
2019-01-17T00:55:14.836Z,1.90
2019-01-17T00:58:05.867Z,2.50
2019-01-17T01:00:50.906Z,1.70
2019-01-17T01:03:37.509Z,1.90
2019-01-17T01:06:23.634Z,2.13
2019-01-17T01:09:13.085Z,1.80
2019-01-17T01:12:01.121Z,2.07
2019-01-17T01:14:41.673Z,1.90
2019-01-17T01:17:30.450Z,1.83
2019-01-17T01:20:18.333Z,1.90
2019-01-17T01:23:18.670Z,2.10
2019-01-17T01:26:12.886Z,2.43
2019-01-17T01:29:05.547Z,2.40
2019-01-17T01:31:55.422Z,2.30
2019-01-17T01:34:31.477Z,2.20
2019-01-17T01:37:17.809Z,1.80
2019-01-17T01:40:14.609Z,2.80
2019-01-17T01:43:12.373Z,2.37
2019-01-17T01:46:02.998Z,1.63
2019-01-17T01:48:46.317Z,2.00
2019-01-17T01:51:42.911Z,2.10
2019-01-17T01:54:11.478Z,1.83
2019-01-17T01:56:39.965Z,2.00
2019-01-17T01:59:08.482Z,3.20
2019-01-17T02:01:36.857Z,2.67
2019-01-17T02:04:05.466Z,2.30
2019-01-17T02:06:33.898Z,1.83
2019-01-17T02:09:04.085Z,1.70
2019-01-17T02:11:33.237Z,2.83
2019-01-17T02:14:01.662Z,1.83
2019-01-17T02:16:30.222Z,1.70
2019-01-17T02:18:59.638Z,1.67
2019-01-17T02:21:28.266Z,2.00
2019-01-17T02:23:58.210Z,1.93
2019-01-17T02:26:26.749Z,2.70
2019-01-17T02:28:55.253Z,2.47
2019-01-17T02:31:23.630Z,1.53
2019-01-17T02:33:52.015Z,2.00
2019-01-17T02:36:20.521Z,2.13
2019-01-17T02:38:48.829Z,1.83
2019-01-17T02:41:17.421Z,2.10
2019-01-17T02:43:45.829Z,2.07
2019-01-17T02:46:14.330Z,1.77
2019-01-17T02:48:42.843Z,2.00
2019-01-17T02:51:11.314Z,2.03
2019-01-17T02:53:39.740Z,2.00
2019-01-17T02:56:08.284Z,2.10
2019-01-17T02:58:36.697Z,1.80
2019-01-17T03:01:05.483Z,1.67
2019-01-17T03:03:34.206Z,2.33
2019-01-17T03:06:04.541Z,2.33
2019-01-17T03:08:33.057Z,2.60
2019-01-17T03:11:01.596Z,2.40
2019-01-17T03:13:30.170Z,2.50
2019-01-17T03:15:58.682Z,2.00
2019-01-17T03:18:27.181Z,2.40
2019-01-17T03:20:55.689Z,2.30
2019-01-17T03:23:24.017Z,2.23
2019-01-17T03:25:52.474Z,2.37
2019-01-17T03:28:20.881Z,1.97
2019-01-17T03:30:49.395Z,2.33
2019-01-17T03:33:18.015Z,2.50
2019-01-17T03:35:46.749Z,2.73
2019-01-17T03:38:15.253Z,2.50
2019-01-17T03:40:43.774Z,2.03
2019-01-17T03:43:12.213Z,2.40
2019-01-17T03:45:40.529Z,1.90
2019-01-17T03:48:09.141Z,2.77
2019-01-17T03:50:37.569Z,2.43
2019-01-17T03:53:06.045Z,2.03
2019-01-17T03:55:34.767Z,2.63
2019-01-17T03:58:03.501Z,3.10
2019-01-17T04:00:31.931Z,3.50
2019-01-17T04:03:00.438Z,3.00
2019-01-17T04:05:30.348Z,3.17
2019-01-17T04:07:58.817Z,3.40
2019-01-17T04:10:27.138Z,3.30
2019-01-17T04:12:55.591Z,3.60
2019-01-17T04:15:23.997Z,4.50
2019-01-17T04:17:53.386Z,4.67
2019-01-17T04:20:21.902Z,5.10
2019-01-17T04:22:50.221Z,5.50
2019-01-17T04:25:18.694Z,5.17
2019-01-17T04:27:47.372Z,5.37
2019-01-17T04:30:19.133Z,6.90
2019-01-17T04:32:47.550Z,8.30
2019-01-17T04:35:16.201Z,7.57
2019-01-17T04:37:44.814Z,7.83
2019-01-17T04:40:13.636Z,7.67
2019-01-17T04:42:42.049Z,8.30
2019-01-17T04:45:11.305Z,8.37
2019-01-17T04:47:39.906Z,8.60
2019-01-17T04:50:09.891Z,8.80
2019-01-17T04:52:38.490Z,9.93
2019-01-17T04:55:08.263Z,11.60
2019-01-17T04:57:36.726Z,10.90
2019-01-17T05:00:08.318Z,11.30
2019-01-17T05:02:37.401Z,10.10
2019-01-17T05:05:06.334Z,8.80
2019-01-17T05:07:34.934Z,10.93
2019-01-17T05:10:04.486Z,10.50
2019-01-17T05:12:33.119Z,10.90
2019-01-17T05:15:01.643Z,10.30
2019-01-17T05:17:30.115Z,8.27
2019-01-17T05:19:58.514Z,7.83
2019-01-17T05:22:26.974Z,6.37
2019-01-17T05:24:55.388Z,6.33
2019-01-17T05:27:23.761Z,5.40
2019-01-17T05:29:52.261Z,5.80
2019-01-17T05:32:20.581Z,6.27
2019-01-17T05:34:49.024Z,6.37
2019-01-17T05:37:17.538Z,5.90
2019-01-17T05:39:46.042Z,5.40
2019-01-17T05:42:14.566Z,5.03
2019-01-17T05:44:43.466Z,5.17
2019-01-17T05:47:11.790Z,5.53
2019-01-17T05:49:40.252Z,5.60
2019-01-17T05:52:08.576Z,5.30
2019-01-17T05:54:37.061Z,4.87
2019-01-17T05:57:05.581Z,4.83
2019-01-17T05:59:34.170Z,5.10
2019-01-17T06:02:02.781Z,4.73
2019-01-17T06:04:31.266Z,4.30
2019-01-17T06:06:59.582Z,4.03
2019-01-17T06:09:28.090Z,3.87
2019-01-17T06:11:56.609Z,4.93
2019-01-17T06:14:25.600Z,7.13
2019-01-17T06:16:54.125Z,8.27
2019-01-17T06:19:22.685Z,8.23
2019-01-17T06:21:51.305Z,7.20
2019-01-17T06:24:19.801Z,6.13
2019-01-17T06:26:48.463Z,6.10
2019-01-17T06:29:17.001Z,5.23
2019-01-17T06:31:45.509Z,5.10
2019-01-17T06:34:13.989Z,5.37
2019-01-17T06:36:42.322Z,5.17
2019-01-17T06:39:10.792Z,5.13
2019-01-17T06:41:39.317Z,6.00
2019-01-17T06:44:07.757Z,7.53
2019-01-17T06:46:36.163Z,10.80
2019-01-17T06:49:04.741Z,8.77
2019-01-17T06:51:33.249Z,7.67
2019-01-17T06:54:01.747Z,7.17
2019-01-17T06:56:30.214Z,6.30
2019-01-17T06:58:59.646Z,5.70
2019-01-17T07:01:28.185Z,5.37
2019-01-17T07:03:56.505Z,5.30
2019-01-17T07:06:25.759Z,6.40
2019-01-17T07:08:54.417Z,6.27
2019-01-17T07:11:23.035Z,5.80
2019-01-17T07:13:51.545Z,4.97
2019-01-17T07:16:20.030Z,5.13
2019-01-17T07:18:48.426Z,4.30
2019-01-17T07:21:17.049Z,4.27
2019-01-17T07:23:45.533Z,4.20
2019-01-17T07:26:13.957Z,4.60
2019-01-17T07:28:42.893Z,4.90
2019-01-17T07:31:11.535Z,5.13
2019-01-17T07:33:40.313Z,3.93
2019-01-17T07:36:08.905Z,3.93
2019-01-17T07:38:37.221Z,4.30
2019-01-17T07:41:06.173Z,4.03
2019-01-17T07:43:34.577Z,3.63
2019-01-17T07:46:03.284Z,3.80
2019-01-17T07:48:31.785Z,4.17
2019-01-17T07:51:00.305Z,3.77
2019-01-17T07:53:28.733Z,4.47
2019-01-17T07:56:01.650Z,4.03
2019-01-17T07:58:29.971Z,3.90
2019-01-17T08:00:58.498Z,4.13
2019-01-17T08:03:26.813Z,4.80
2019-01-17T08:05:56.373Z,4.80
2019-01-17T08:08:25.246Z,4.10
2019-01-17T08:10:53.754Z,3.97
2019-01-17T08:13:22.289Z,3.93
2019-01-17T08:15:50.750Z,3.90
2019-01-17T08:18:19.281Z,3.50
2019-01-17T08:20:47.649Z,3.30
2019-01-17T08:23:16.838Z,3.33
2019-01-17T08:25:45.158Z,3.00
2019-01-17T08:28:17.981Z,3.00
2019-01-17T08:30:46.397Z,3.70
2019-01-17T08:33:15.262Z,3.03
2019-01-17T08:35:43.568Z,2.80
2019-01-17T08:38:12.110Z,3.03
2019-01-17T08:40:40.625Z,2.67
2019-01-17T08:43:09.009Z,2.90
2019-01-17T08:45:37.478Z,3.00
2019-01-17T08:48:06.062Z,3.40
2019-01-17T08:50:34.386Z,2.73
2019-01-17T08:53:03.218Z,2.80
2019-01-17T08:55:32.315Z,3.00
2019-01-17T08:58:00.919Z,2.50
2019-01-17T09:00:29.314Z,2.73
2019-01-17T09:02:57.888Z,3.60
2019-01-17T09:05:27.253Z,3.42
2019-01-17T09:07:57.502Z,2.90
2019-01-17T09:10:30.149Z,3.47
2019-01-17T09:12:58.660Z,3.10
2019-01-17T09:15:29.371Z,3.40
2019-01-17T09:17:58.018Z,3.20
2019-01-17T09:20:26.424Z,3.20
2019-01-17T09:22:56.018Z,3.37
2019-01-17T09:25:26.404Z,2.70
2019-01-17T09:27:54.817Z,2.93
2019-01-17T09:30:23.528Z,2.70
2019-01-17T09:32:52.252Z,1.90
2019-01-17T09:35:21.422Z,2.40
2019-01-17T09:37:50.921Z,2.27
2019-01-17T09:40:20.930Z,1.80
2019-01-17T09:42:49.714Z,1.90
2019-01-17T09:45:21.881Z,2.30
2019-01-17T09:47:50.377Z,7.33
2019-01-17T09:50:21.362Z,1.70
2019-01-17T09:52:50.668Z,1.87
2019-01-17T09:55:20.426Z,1.87
2019-01-17T09:57:49.228Z,1.97
2019-01-17T10:00:37.689Z,2.50
2019-01-17T10:03:06.611Z,2.60
2019-01-17T10:05:35.334Z,2.50
2019-01-17T10:08:03.953Z,1.87
2019-01-17T10:10:33.296Z,1.70
2019-01-17T10:13:01.756Z,2.37
2019-01-17T10:15:40.102Z,1.90
2019-01-17T10:19:03.003Z,1.87
2019-01-17T10:22:40.700Z,1.80
2019-01-17T10:25:44.529Z,2.50
2019-01-17T10:28:40.794Z,1.80
2019-01-17T10:31:42.712Z,1.43
2019-01-17T10:34:32.538Z,2.50
2019-01-17T10:37:58.824Z,2.95
2019-01-17T10:41:06.638Z,2.17
2019-01-17T10:44:22.779Z,1.83
2019-01-17T10:47:38.111Z,1.90
2019-01-17T10:50:53.185Z,1.57
2019-01-17T10:54:14.733Z,2.00
2019-01-17T10:57:13.603Z,1.60
2019-01-17T11:00:14.085Z,1.73
2019-01-17T11:03:00.917Z,1.70
2019-01-17T11:06:05.535Z,1.60
2019-01-17T11:09:09.795Z,1.40
2019-01-17T11:12:15.998Z,1.83
2019-01-17T11:15:13.499Z,1.27
2019-01-17T11:18:11.804Z,6.83
2019-01-17T11:21:14.279Z,2.00
2019-01-17T11:24:27.161Z,1.87
2019-01-17T11:27:35.965Z,2.27
2019-01-17T11:30:37.600Z,1.70
2019-01-17T11:33:27.435Z,1.80
2019-01-17T11:36:44.082Z,2.00
2019-01-17T11:39:45.944Z,2.60
2019-01-17T11:43:05.613Z,1.80
2019-01-17T11:45:54.851Z,2.10
2019-01-17T11:48:56.810Z,2.00
2019-01-17T11:51:54.659Z,2.00
2019-01-17T11:54:56.185Z,1.50
2019-01-17T11:57:41.026Z,1.50
2019-01-17T12:01:03.914Z,1.50
2019-01-17T12:04:09.514Z,1.90
2019-01-17T12:06:38.710Z,1.70
2019-01-17T12:09:07.912Z,1.87
2019-01-17T12:11:38.654Z,2.07
2019-01-17T12:14:12.730Z,2.20
2019-01-17T12:16:42.386Z,1.60
2019-01-17T12:19:11.385Z,2.10
2019-01-17T12:21:40.803Z,2.23
2019-01-17T12:24:09.542Z,1.90
2019-01-17T12:26:47.464Z,2.03
2019-01-17T12:29:13.467Z,2.60
2019-01-17T12:31:42.508Z,2.40
2019-01-17T12:34:14.837Z,5.87
2019-01-17T12:36:43.674Z,2.90
2019-01-17T12:39:13.429Z,2.67
2019-01-17T12:41:42.965Z,2.60
2019-01-17T12:44:12.602Z,2.57
2019-01-17T12:46:41.456Z,2.70
2019-01-17T12:49:10.751Z,2.73
2019-01-17T12:51:39.963Z,2.80
2019-01-17T12:54:09.375Z,2.67
2019-01-17T12:56:38.114Z,2.57
2019-01-17T12:59:13.174Z,3.03
2019-01-17T13:01:43.316Z,2.23
2019-01-17T13:04:12.493Z,2.43
2019-01-17T13:06:41.208Z,2.75
2019-01-17T13:09:10.406Z,2.40
2019-01-17T13:11:39.118Z,2.47
2019-01-17T13:14:07.765Z,2.70
2019-01-17T13:16:36.659Z,2.00
2019-01-17T13:19:05.530Z,1.53
2019-01-17T13:21:34.501Z,2.10
2019-01-17T13:24:04.065Z,2.67
2019-01-17T13:26:32.801Z,2.70
2019-01-17T13:29:01.564Z,1.87
2019-01-17T13:31:30.366Z,3.00
2019-01-17T13:33:59.085Z,1.83
2019-01-17T13:36:30.040Z,11.47
2019-01-17T13:38:58.846Z,12.90
2019-01-17T13:41:27.392Z,4.87
2019-01-17T13:43:56.361Z,7.40
2019-01-17T13:46:24.985Z,5.47
2019-01-17T13:48:54.040Z,6.47
2019-01-17T13:51:22.742Z,8.10
2019-01-17T13:53:51.319Z,3.77
2019-01-17T13:56:20.045Z,2.63
2019-01-17T13:58:48.809Z,3.87
2019-01-17T14:01:17.508Z,2.90
2019-01-17T14:03:46.366Z,3.53
2019-01-17T14:06:15.106Z,3.00
2019-01-17T14:08:43.837Z,2.50
2019-01-17T14:11:12.457Z,3.47
2019-01-17T14:13:41.356Z,3.13
2019-01-17T14:16:10.274Z,3.90
2019-01-17T14:18:39.115Z,3.87
2019-01-17T14:21:07.870Z,2.97
2019-01-17T14:23:36.571Z,3.17
2019-01-17T14:26:05.258Z,4.30
2019-01-17T14:28:34.141Z,3.77
2019-01-17T14:31:02.681Z,3.50
2019-01-17T14:33:31.361Z,4.23
2019-01-17T14:35:59.973Z,3.07
2019-01-17T14:38:29.238Z,2.60
2019-01-17T14:40:58.385Z,2.90
2019-01-17T14:43:27.217Z,1.97
2019-01-17T14:45:56.133Z,4.37
2019-01-17T14:48:24.561Z,3.30
2019-01-17T14:50:53.521Z,3.13
2019-01-17T14:53:22.193Z,4.47
2019-01-17T14:55:51.006Z,3.10
2019-01-17T14:58:19.661Z,3.17
2019-01-17T15:00:48.462Z,3.87
2019-01-17T15:03:20.047Z,3.90
2019-01-17T15:05:50.516Z,4.53
2019-01-17T15:08:18.998Z,3.27
2019-01-17T15:10:47.618Z,3.50
2019-01-17T15:13:16.396Z,4.47
2019-01-17T15:15:45.148Z,3.53
2019-01-17T15:18:14.662Z,2.70
2019-01-17T15:20:43.454Z,2.90
2019-01-17T15:23:12.685Z,3.23
2019-01-17T15:25:41.371Z,4.50
2019-01-17T15:28:10.478Z,3.40
2019-01-17T15:30:39.381Z,3.63
2019-01-17T15:33:08.910Z,3.27
2019-01-17T15:35:38.294Z,2.60
2019-01-17T15:38:07.325Z,5.37
2019-01-17T15:40:36.916Z,3.70
2019-01-17T15:43:08.661Z,3.80
2019-01-17T15:45:39.074Z,3.13
2019-01-17T15:48:10.254Z,2.90
2019-01-17T15:50:41.898Z,3.83
2019-01-17T15:53:12.873Z,2.80
2019-01-17T15:55:44.735Z,2.73
2019-01-17T15:58:17.467Z,2.30
2019-01-17T16:00:48.482Z,3.10
2019-01-17T16:03:19.898Z,2.97
2019-01-17T16:06:11.037Z,2.80
2019-01-17T16:08:41.324Z,3.23
2019-01-17T16:11:10.230Z,2.60
2019-01-17T16:13:39.356Z,4.43
2019-01-17T16:16:08.633Z,3.27
2019-01-17T16:18:40.957Z,3.50
2019-01-17T16:21:10.053Z,3.47
2019-01-17T16:23:38.804Z,3.50
2019-01-17T16:26:07.610Z,3.60
2019-01-17T16:28:36.270Z,2.60
2019-01-17T16:31:05.042Z,3.27
2019-01-17T16:33:33.985Z,3.70
2019-01-17T16:36:02.778Z,3.80
2019-01-17T16:38:31.817Z,3.33
2019-01-17T16:41:00.385Z,3.40
2019-01-17T16:43:29.382Z,2.60
2019-01-17T16:45:58.022Z,3.47
2019-01-17T16:48:27.289Z,3.70
2019-01-17T16:50:55.879Z,4.60
2019-01-17T16:53:26.828Z,3.40
2019-01-17T16:55:56.644Z,4.43
2019-01-17T16:58:25.430Z,3.97
2019-01-17T17:00:54.259Z,3.20
2019-01-17T17:03:22.763Z,3.67
2019-01-17T17:05:53.277Z,2.70
2019-01-17T17:08:22.231Z,4.60
2019-01-17T17:10:51.181Z,3.97
2019-01-17T17:13:20.411Z,6.97
2019-01-17T17:15:49.328Z,4.40
2019-01-17T17:18:18.309Z,4.03
2019-01-17T17:20:47.281Z,2.97
2019-01-17T17:23:15.991Z,3.30
2019-01-17T17:25:44.736Z,3.40
2019-01-17T17:28:13.421Z,5.80
2019-01-17T17:30:42.283Z,5.90
2019-01-17T17:33:11.168Z,4.40
2019-01-17T17:35:40.186Z,4.63
2019-01-17T17:38:08.955Z,3.77
2019-01-17T17:40:37.918Z,3.97
2019-01-17T17:43:07.074Z,4.10
2019-01-17T17:45:36.824Z,4.90
2019-01-17T17:48:06.129Z,4.00
2019-01-17T17:50:35.198Z,4.70
2019-01-17T17:53:04.040Z,3.70
2019-01-17T17:55:33.869Z,3.53
2019-01-17T17:58:02.679Z,4.30
2019-01-17T18:00:57.235Z,4.37
2019-01-17T18:03:26.049Z,3.50
2019-01-17T18:05:55.528Z,5.20
2019-01-17T18:08:24.433Z,2.73
2019-01-17T18:10:53.206Z,3.03
2019-01-17T18:13:21.891Z,3.77
2019-01-17T18:15:50.663Z,4.03
2019-01-17T18:18:20.119Z,3.90
2019-01-17T18:21:08.420Z,4.23
2019-01-17T18:23:37.579Z,3.90
2019-01-17T18:26:06.277Z,3.70
2019-01-17T18:28:35.194Z,3.93
2019-01-17T18:31:04.257Z,3.23
2019-01-17T18:33:32.794Z,3.27
2019-01-17T18:38:58.017Z,4.23
2019-01-17T18:41:26.620Z,4.90
2019-01-17T18:43:55.876Z,3.60
2019-01-17T18:46:24.876Z,3.50
2019-01-17T18:48:53.589Z,3.97
2019-01-17T18:51:23.332Z,4.03
2019-01-17T18:53:52.293Z,4.20
2019-01-17T18:56:20.904Z,3.47
2019-01-17T18:58:49.444Z,2.53
2019-01-17T19:01:18.265Z,3.40
2019-01-17T19:03:47.413Z,13.47
2019-01-17T19:06:15.909Z,4.40
2019-01-17T19:08:44.592Z,4.63
2019-01-17T19:11:13.550Z,4.33
2019-01-17T19:13:42.507Z,3.67
2019-01-17T19:16:11.629Z,3.93
2019-01-17T19:18:41.837Z,3.97
2019-01-17T19:21:10.680Z,4.47
2019-01-17T19:23:39.697Z,3.57
2019-01-17T19:26:08.789Z,3.70
2019-01-17T19:28:37.401Z,3.83
2019-01-17T19:31:06.641Z,3.37
2019-01-17T19:33:35.395Z,2.57
2019-01-17T19:36:04.744Z,3.10
2019-01-17T19:38:33.423Z,3.53
2019-01-17T19:41:02.085Z,4.30
2019-01-17T19:43:30.783Z,3.20
2019-01-17T19:45:59.624Z,3.07
2019-01-17T19:48:28.157Z,6.80
2019-01-17T19:50:57.116Z,7.00
2019-01-17T19:53:26.045Z,3.00
2019-01-17T19:55:54.882Z,2.47
2019-01-17T19:58:28.941Z,3.10
2019-01-17T20:00:57.017Z,2.90
2019-01-17T20:03:26.437Z,2.33
2019-01-17T20:05:56.709Z,2.40
2019-01-17T20:08:26.026Z,2.90
2019-01-17T20:10:55.081Z,2.90
2019-01-17T20:13:24.844Z,2.93
2019-01-17T20:15:53.872Z,3.60
2019-01-17T20:18:23.175Z,3.63
2019-01-17T20:20:55.140Z,5.57
2019-01-17T20:23:27.851Z,4.20
2019-01-17T20:25:57.446Z,3.77
2019-01-17T20:28:28.374Z,3.63
2019-01-17T20:30:57.098Z,4.50
2019-01-17T20:33:25.722Z,7.78
2019-01-17T20:35:54.911Z,5.13
2019-01-17T20:38:24.344Z,4.73
2019-01-17T20:40:58.193Z,4.57
2019-01-17T20:43:23.852Z,3.80
2019-01-17T20:45:53.004Z,3.53
2019-01-17T20:48:21.633Z,3.17
2019-01-17T20:50:50.512Z,3.60
2019-01-17T20:53:22.577Z,4.10
2019-01-17T20:55:51.385Z,3.53
2019-01-17T20:58:20.501Z,3.97
2019-01-17T21:01:17.469Z,3.17
2019-01-17T21:03:46.399Z,4.47
2019-01-17T21:06:15.596Z,3.67
2019-01-17T21:08:44.448Z,4.03
2019-01-17T21:11:13.243Z,3.80
2019-01-17T21:13:42.232Z,4.00
2019-01-17T21:16:11.224Z,4.67
2019-01-17T21:18:39.886Z,4.00
2019-01-17T21:21:08.833Z,4.23
2019-01-17T21:23:37.889Z,3.93
2019-01-17T21:26:06.870Z,3.20
2019-01-17T21:28:35.729Z,3.47
2019-01-17T21:31:04.962Z,3.53
2019-01-17T21:33:35.110Z,3.60
2019-01-17T21:36:08.670Z,4.17
2019-01-17T21:38:39.261Z,3.57
2019-01-17T21:41:08.966Z,3.17
2019-01-17T21:43:37.628Z,3.80
2019-01-17T21:46:06.722Z,4.73
2019-01-17T21:48:36.207Z,8.93
2019-01-17T21:51:05.221Z,12.60
2019-01-17T21:53:37.506Z,13.83
2019-01-17T21:56:06.677Z,8.50
2019-01-17T21:58:38.138Z,8.87
2019-01-17T22:01:07.320Z,8.87
2019-01-17T22:03:36.369Z,6.60
2019-01-17T22:06:05.464Z,8.33
2019-01-17T22:08:34.201Z,9.27
2019-01-17T22:11:03.232Z,8.80
2019-01-17T22:13:32.607Z,6.20
2019-01-17T22:16:02.484Z,5.27
2019-01-17T22:18:31.668Z,5.97
2019-01-17T22:21:00.777Z,6.40
2019-01-17T22:23:29.888Z,4.40
2019-01-17T22:25:59.085Z,4.10
2019-01-17T22:28:29.475Z,4.97
2019-01-17T22:30:58.337Z,4.00
2019-01-17T22:33:27.169Z,4.77
2019-01-17T22:35:55.909Z,8.70
2019-01-17T22:38:24.527Z,13.20
2019-01-17T22:40:53.565Z,6.67
2019-01-17T22:43:22.617Z,7.17
2019-01-17T22:45:51.224Z,6.93
2019-01-17T22:48:21.523Z,5.70
2019-01-17T22:50:50.350Z,4.57
2019-01-17T22:53:19.049Z,4.20
2019-01-17T22:55:48.221Z,3.90
2019-01-17T22:58:17.132Z,3.83
2019-01-17T23:01:21.137Z,4.97
2019-01-17T23:03:50.462Z,4.20
2019-01-17T23:06:19.385Z,4.53
2019-01-17T23:08:48.453Z,4.40
2019-01-17T23:11:17.731Z,4.10
2019-01-17T23:13:46.637Z,3.40
2019-01-17T23:16:15.730Z,3.67
2019-01-17T23:18:44.745Z,3.07
2019-01-17T23:21:13.492Z,3.80
2019-01-17T23:23:42.157Z,3.00
2019-01-17T23:26:10.672Z,3.10
2019-01-17T23:28:40.971Z,4.40
2019-01-17T23:31:09.676Z,3.90
2019-01-17T23:33:38.384Z,4.50
2019-01-17T23:36:07.451Z,5.10
2019-01-17T23:38:36.253Z,5.37
2019-01-17T23:41:05.491Z,5.60
2019-01-17T23:43:33.945Z,4.37
2019-01-17T23:46:03.113Z,5.13
2019-01-17T23:48:32.224Z,4.50
2019-01-17T23:51:00.941Z,3.63
2019-01-17T23:53:30.097Z,4.17
2019-01-17T23:55:59.056Z,3.30
2019-01-17T23:58:27.844Z,3.13
